createdAt,value
2023-02-28T00:03:30.827Z,9.39
2023-02-28T00:08:34.450Z,9.34
2023-02-28T00:13:39.956Z,9.25
2023-02-28T00:18:45.428Z,9.22
2023-02-28T00:23:49.477Z,9.33
2023-02-28T00:28:54.311Z,9.37
2023-02-28T00:33:59.577Z,9.23
2023-02-28T00:39:03.180Z,9.05
2023-02-28T00:44:07.005Z,8.84
2023-02-28T00:49:12.282Z,8.78
2023-02-28T00:54:15.907Z,8.72
2023-02-28T00:59:19.988Z,8.81
2023-02-28T01:04:25.314Z,8.85
2023-02-28T01:09:28.948Z,8.78
2023-02-28T01:14:32.620Z,8.62
2023-02-28T01:19:37.999Z,8.64
2023-02-28T01:24:41.654Z,8.73
2023-02-28T01:29:45.305Z,8.62
2023-02-28T01:34:50.564Z,8.63
2023-02-28T01:39:54.181Z,8.59
2023-02-28T01:45:04.342Z,8.68
2023-02-28T01:50:14.497Z,8.65
2023-02-28T01:55:20.459Z,8.52
2023-02-28T02:00:26.880Z,8.26
2023-02-28T02:05:32.299Z,8.77
2023-02-28T02:10:38.117Z,8.48
2023-02-28T02:15:50.480Z,8.35
2023-02-28T02:21:24.281Z,8.35
2023-02-28T02:26:51.094Z,8.37
2023-02-28T02:32:06.985Z,8.45
2023-02-28T02:37:29.330Z,8.25
2023-02-28T02:42:41.604Z,8.12
2023-02-28T02:47:47.050Z,7.72
2023-02-28T02:52:57.408Z,7.86
2023-02-28T02:58:03.689Z,7.84
2023-02-28T03:03:07.609Z,7.79
2023-02-28T03:08:12.940Z,7.56
2023-02-28T03:13:39.026Z,7.40
2023-02-28T03:18:52.256Z,7.33
2023-02-28T03:24:05.483Z,7.07
2023-02-28T03:29:21.930Z,6.99
2023-02-28T03:34:31.309Z,6.87
2023-02-28T03:39:41.603Z,6.76
2023-02-28T03:44:49.556Z,6.88
2023-02-28T03:49:59.477Z,6.80
2023-02-28T03:55:08.880Z,6.69
2023-02-28T04:00:18.374Z,6.63
2023-02-28T04:05:22.714Z,6.72
2023-02-28T04:10:28.466Z,6.76
2023-02-28T04:15:32.214Z,6.48
2023-02-28T04:20:35.877Z,6.59
2023-02-28T04:25:41.160Z,6.69
2023-02-28T04:30:44.856Z,6.63
2023-02-28T04:35:48.554Z,6.58
2023-02-28T04:40:53.897Z,6.49
2023-02-28T04:45:58.057Z,6.42
2023-02-28T04:51:03.516Z,6.34
2023-02-28T04:56:11.079Z,6.45
2023-02-28T05:01:24.909Z,6.43
2023-02-28T05:06:30.239Z,6.41
2023-02-28T05:11:36.296Z,6.38
2023-02-28T05:16:40.150Z,6.42
2023-02-28T05:21:51.328Z,6.51
2023-02-28T05:26:56.886Z,6.39
2023-02-28T05:32:00.586Z,6.47
2023-02-28T05:37:04.279Z,6.54
2023-02-28T05:42:10.639Z,6.68
2023-02-28T05:47:14.254Z,6.74
2023-02-28T05:52:17.934Z,6.77
2023-02-28T05:57:24.836Z,6.78
2023-02-28T06:02:28.581Z,6.65
2023-02-28T06:07:32.224Z,6.44
2023-02-28T06:12:38.122Z,6.36
2023-02-28T06:17:42.426Z,6.27
2023-02-28T06:22:46.056Z,6.17
2023-02-28T06:27:51.343Z,6.12
2023-02-28T06:32:55.307Z,6.14
2023-02-28T06:37:59.960Z,6.12
2023-02-28T06:43:05.410Z,6.31
2023-02-28T06:48:09.039Z,6.35
2023-02-28T06:53:12.696Z,6.34
2023-02-28T06:58:18.930Z,6.23
2023-02-28T07:03:22.590Z,6.08
2023-02-28T07:08:26.706Z,5.94
2023-02-28T07:13:33.178Z,5.85
2023-02-28T07:18:36.274Z,5.67
2023-02-28T07:23:40.647Z,5.51
2023-02-28T07:28:47.045Z,5.43
2023-02-28T07:33:50.719Z,5.44
2023-02-28T07:38:54.472Z,5.42
2023-02-28T07:43:59.776Z,5.33
2023-02-28T07:49:03.819Z,5.27
2023-02-28T07:54:07.674Z,5.16
2023-02-28T07:59:13.562Z,5.11
2023-02-28T08:04:17.225Z,5.12
2023-02-28T08:09:21.122Z,5.09
2023-02-28T08:14:26.434Z,4.93
2023-02-28T08:19:30.107Z,4.71
2023-02-28T08:24:33.739Z,4.82
2023-02-28T08:29:39.711Z,4.80
2023-02-28T08:34:43.313Z,4.77
2023-02-28T08:39:46.971Z,4.79
2023-02-28T08:44:53.231Z,4.69
2023-02-28T08:49:56.828Z,4.76
2023-02-28T08:55:00.757Z,4.71
2023-02-28T09:00:07.007Z,4.62
2023-02-28T09:05:11.161Z,4.54
2023-02-28T09:10:14.806Z,4.46
2023-02-28T09:15:21.047Z,4.34
2023-02-28T09:20:24.729Z,4.15
2023-02-28T09:25:28.445Z,4.23
2023-02-28T09:30:33.847Z,4.35
2023-02-28T09:35:37.505Z,4.41
2023-02-28T09:40:52.584Z,4.33
2023-02-28T09:46:04.478Z,4.36
2023-02-28T09:51:17.466Z,4.24
2023-02-28T09:56:26.089Z,4.22
2023-02-28T10:01:40.933Z,4.24
2023-02-28T10:06:48.726Z,4.18
2023-02-28T10:11:56.107Z,4.31
2023-02-28T10:17:06.253Z,4.15
2023-02-28T10:22:15.600Z,4.07
2023-02-28T10:27:21.139Z,3.99
2023-02-28T10:32:28.699Z,4.04
2023-02-28T10:37:32.302Z,4.04
2023-02-28T10:42:35.991Z,4.12
2023-02-28T10:47:51.520Z,4.32
2023-02-28T10:52:56.093Z,4.42
2023-02-28T10:57:59.774Z,4.50
2023-02-28T11:03:31.334Z,4.53
2023-02-28T11:08:35.584Z,4.49
2023-02-28T11:13:39.347Z,4.49
2023-02-28T11:18:49.820Z,4.49
2023-02-28T11:23:58.184Z,4.49
2023-02-28T11:29:12.054Z,4.57
2023-02-28T11:34:29.972Z,4.52
2023-02-28T11:39:34.855Z,4.66
2023-02-28T11:44:50.612Z,4.65
2023-02-28T11:50:13.301Z,4.81
2023-02-28T11:55:21.481Z,4.82
2023-02-28T12:00:40.760Z,4.90
2023-02-28T12:05:48.582Z,5.14
2023-02-28T12:11:06.712Z,5.40
2023-02-28T12:16:39.486Z,5.48
2023-02-28T12:22:13.884Z,5.59
2023-02-28T12:27:23.435Z,5.70
2023-02-28T12:32:34.650Z,5.95
2023-02-28T12:37:43.190Z,5.83
2023-02-28T12:42:51.122Z,6.13
2023-02-28T12:47:59.168Z,6.41
2023-02-28T12:53:08.773Z,6.51
2023-02-28T12:58:20.267Z,6.43
2023-02-28T13:03:46.805Z,6.55
2023-02-28T13:09:06.824Z,6.47
2023-02-28T13:14:23.904Z,6.53
2023-02-28T13:19:30.719Z,6.63
2023-02-28T13:24:52.007Z,6.79
2023-02-28T13:29:55.892Z,6.86
2023-02-28T13:35:44.591Z,6.83
2023-02-28T13:40:49.959Z,6.83
2023-02-28T13:46:12.201Z,6.90
2023-02-28T13:51:41.715Z,6.99
2023-02-28T13:56:53.501Z,6.97
2023-02-28T14:02:19.113Z,7.00
2023-02-28T14:07:25.697Z,7.08
2023-02-28T14:13:02.486Z,7.13
2023-02-28T14:18:15.209Z,7.02
2023-02-28T14:23:33.121Z,7.08
2023-02-28T14:28:51.765Z,6.96
2023-02-28T14:34:15.719Z,7.07
2023-02-28T14:39:23.872Z,7.03
2023-02-28T14:44:29.869Z,7.13
2023-02-28T14:49:36.816Z,7.19
2023-02-28T14:54:41.198Z,7.29
2023-02-28T14:59:46.519Z,7.39
2023-02-28T15:04:58.422Z,7.47
2023-02-28T15:10:16.089Z,7.48
2023-02-28T15:15:31.702Z,7.25
2023-02-28T15:20:45.960Z,7.24
2023-02-28T15:25:50.160Z,7.26
2023-02-28T15:30:58.862Z,7.44
2023-02-28T15:36:15.171Z,7.54
2023-02-28T15:41:27.967Z,7.56
2023-02-28T15:46:33.535Z,7.67
2023-02-28T15:51:39.670Z,7.76
2023-02-28T15:56:47.143Z,7.85
2023-02-28T16:02:13.703Z,7.94
2023-02-28T16:07:17.468Z,7.97
2023-02-28T16:12:22.610Z,7.97
2023-02-28T16:17:29.671Z,7.81
2023-02-28T16:22:33.283Z,7.79
2023-02-28T16:27:39.326Z,7.94
2023-02-28T16:32:44.664Z,8.04
2023-02-28T16:37:48.313Z,8.05
2023-02-28T16:42:54.754Z,8.07
2023-02-28T16:47:59.327Z,8.15
2023-02-28T16:53:02.956Z,8.28
2023-02-28T16:58:06.840Z,8.21
2023-02-28T17:03:32.008Z,8.37
2023-02-28T17:08:36.596Z,8.45
2023-02-28T17:13:40.245Z,8.54
2023-02-28T17:18:45.549Z,8.66
2023-02-28T17:23:49.179Z,8.69
2023-02-28T17:28:55.509Z,8.79
2023-02-28T17:34:00.869Z,9.03
2023-02-28T17:39:05.416Z,9.20
2023-02-28T17:44:09.110Z,9.52
2023-02-28T17:49:14.867Z,9.72
2023-02-28T17:54:19.316Z,9.61
2023-02-28T17:59:22.995Z,9.74
2023-02-28T18:04:28.422Z,9.88
2023-02-28T18:09:32.047Z,10.14
2023-02-28T18:14:35.692Z,9.75
2023-02-28T18:19:41.152Z,10.03
2023-02-28T18:24:44.985Z,10.10
2023-02-28T18:29:48.646Z,10.21
2023-02-28T18:34:54.082Z,10.49
2023-02-28T18:39:58.146Z,10.71
2023-02-28T18:45:01.824Z,10.80
2023-02-28T18:50:07.621Z,10.93
2023-02-28T18:55:11.677Z,10.94
2023-02-28T19:00:17.640Z,11.26
2023-02-28T19:05:23.120Z,11.47
2023-02-28T19:10:26.778Z,11.64
2023-02-28T19:15:30.467Z,11.71
2023-02-28T19:20:35.806Z,11.38
2023-02-28T19:25:42.481Z,11.59
2023-02-28T19:30:48.433Z,11.72
2023-02-28T19:35:53.975Z,11.67
2023-02-28T19:41:04.556Z,11.69
2023-02-28T19:46:08.852Z,12.03
2023-02-28T19:51:15.534Z,12.35
2023-02-28T19:56:19.252Z,12.15
2023-02-28T20:01:23.001Z,12.34
2023-02-28T20:06:29.358Z,12.28
2023-02-28T20:11:33.179Z,12.29
2023-02-28T20:16:36.874Z,12.68
2023-02-28T20:21:42.156Z,12.82
2023-02-28T20:26:45.888Z,12.75
2023-02-28T20:31:49.674Z,12.98
2023-02-28T20:36:55.031Z,13.18
2023-02-28T20:41:58.651Z,12.41
2023-02-28T20:47:02.270Z,12.62
2023-02-28T20:52:07.633Z,12.62
2023-02-28T20:57:11.272Z,12.84
2023-02-28T21:02:17.610Z,12.71
2023-02-28T21:07:22.920Z,12.81
2023-02-28T21:12:26.640Z,12.70
2023-02-28T21:17:30.483Z,12.59
2023-02-28T21:22:36.733Z,12.50
2023-02-28T21:27:40.337Z,12.13
2023-02-28T21:32:43.947Z,12.05
2023-02-28T21:37:49.243Z,12.45
2023-02-28T21:42:53.041Z,12.59
2023-02-28T21:47:56.687Z,12.57
2023-02-28T21:53:02.229Z,12.41
2023-02-28T21:58:05.890Z,12.53
2023-02-28T22:03:09.816Z,12.52
2023-02-28T22:08:15.139Z,12.25
2023-02-28T22:13:18.805Z,12.10
2023-02-28T22:18:22.477Z,11.84
2023-02-28T22:23:27.952Z,11.85
2023-02-28T22:28:31.928Z,12.01
2023-02-28T22:33:35.558Z,11.77
2023-02-28T22:38:40.954Z,11.81
2023-02-28T22:43:44.766Z,11.98
2023-02-28T22:48:48.590Z,11.38
2023-02-28T22:53:55.657Z,11.64
2023-02-28T22:59:00.214Z,11.82
2023-02-28T23:04:04.661Z,11.78
2023-02-28T23:09:11.578Z,11.53
2023-02-28T23:14:17.343Z,11.58
2023-02-28T23:19:23.639Z,11.90
2023-02-28T23:24:30.743Z,11.79
2023-02-28T23:29:35.048Z,11.68
2023-02-28T23:34:38.691Z,11.22
2023-02-28T23:39:43.947Z,11.51
2023-02-28T23:44:47.556Z,11.15
2023-02-28T23:49:51.180Z,10.88
2023-02-28T23:54:56.571Z,10.80
